sensor_id;sensor_type;location;lat;lon;timestamp;P1;durP1;ratioP1;P2;durP2;ratioP2
72132;SDS011;60008;50.826;6.896;2023-08-24T00:01:09;5.63;;;2.33;;
72132;SDS011;60008;50.826;6.896;2023-08-24T00:04:03;7.03;;;2.30;;
72132;SDS011;60008;50.826;6.896;2023-08-24T00:06:48;6.07;;;2.40;;
72132;SDS011;60008;50.826;6.896;2023-08-24T00:09:40;6.13;;;2.30;;
72132;SDS011;60008;50.826;6.896;2023-08-24T00:12:37;9.10;;;2.25;;
72132;SDS011;60008;50.826;6.896;2023-08-24T00:15:29;3.50;;;1.98;;
72132;SDS011;60008;50.826;6.896;2023-08-24T00:18:14;4.60;;;2.42;;
72132;SDS011;60008;50.826;6.896;2023-08-24T00:21:06;5.13;;;2.43;;
72132;SDS011;60008;50.826;6.896;2023-08-24T00:23:52;6.40;;;2.30;;
72132;SDS011;60008;50.826;6.896;2023-08-24T00:26:44;4.97;;;2.45;;
72132;SDS011;60008;50.826;6.896;2023-08-24T00:29:30;3.65;;;2.08;;
72132;SDS011;60008;50.826;6.896;2023-08-24T00:32:22;6.35;;;2.33;;
72132;SDS011;60008;50.826;6.896;2023-08-24T00:35:08;5.80;;;2.33;;
72132;SDS011;60008;50.826;6.896;2023-08-24T00:38:01;6.97;;;2.40;;
72132;SDS011;60008;50.826;6.896;2023-08-24T00:40:46;4.57;;;1.90;;
72132;SDS011;60008;50.826;6.896;2023-08-24T00:43:38;9.68;;;2.65;;
72132;SDS011;60008;50.826;6.896;2023-08-24T00:46:23;9.43;;;2.50;;
72132;SDS011;60008;50.826;6.896;2023-08-24T00:49:18;8.47;;;2.53;;
72132;SDS011;60008;50.826;6.896;2023-08-24T00:52:03;7.72;;;2.55;;
72132;SDS011;60008;50.826;6.896;2023-08-24T00:54:55;5.60;;;2.50;;
72132;SDS011;60008;50.826;6.896;2023-08-24T00:57:40;6.80;;;2.33;;
72132;SDS011;60008;50.826;6.896;2023-08-24T01:00:33;5.82;;;2.40;;
72132;SDS011;60008;50.826;6.896;2023-08-24T01:03:18;5.60;;;2.27;;
72132;SDS011;60008;50.826;6.896;2023-08-24T01:06:10;5.97;;;2.20;;
72132;SDS011;60008;50.826;6.896;2023-08-24T01:08:55;5.88;;;2.42;;
72132;SDS011;60008;50.826;6.896;2023-08-24T01:18:00;7.60;;;2.40;;
72132;SDS011;60008;50.826;6.896;2023-08-24T01:20:48;6.05;;;2.50;;
72132;SDS011;60008;50.826;6.896;2023-08-24T01:23:56;8.75;;;2.45;;
72132;SDS011;60008;50.826;6.896;2023-08-24T01:26:49;6.18;;;2.15;;
72132;SDS011;60008;50.826;6.896;2023-08-24T01:29:40;7.70;;;2.40;;
72132;SDS011;60008;50.826;6.896;2023-08-24T01:32:26;5.47;;;2.50;;
72132;SDS011;60008;50.826;6.896;2023-08-24T01:35:18;7.47;;;2.53;;
72132;SDS011;60008;50.826;6.896;2023-08-24T01:38:03;7.90;;;2.20;;
72132;SDS011;60008;50.826;6.896;2023-08-24T01:41:01;9.00;;;2.50;;
72132;SDS011;60008;50.826;6.896;2023-08-24T01:43:52;9.55;;;2.83;;
72132;SDS011;60008;50.826;6.896;2023-08-24T01:46:45;5.67;;;2.67;;
72132;SDS011;60008;50.826;6.896;2023-08-24T01:49:31;6.95;;;2.70;;
72132;SDS011;60008;50.826;6.896;2023-08-24T01:52:25;6.25;;;2.67;;
72132;SDS011;60008;50.826;6.896;2023-08-24T01:55:12;5.60;;;2.20;;
72132;SDS011;60008;50.826;6.896;2023-08-24T01:58:04;4.80;;;2.38;;
72132;SDS011;60008;50.826;6.896;2023-08-24T02:00:49;4.00;;;2.27;;
72132;SDS011;60008;50.826;6.896;2023-08-24T02:03:41;5.18;;;2.40;;
72132;SDS011;60008;50.826;6.896;2023-08-24T02:06:26;7.72;;;2.50;;
72132;SDS011;60008;50.826;6.896;2023-08-24T02:09:17;6.82;;;2.90;;
72132;SDS011;60008;50.826;6.896;2023-08-24T02:12:09;5.35;;;2.47;;
72132;SDS011;60008;50.826;6.896;2023-08-24T02:15:01;7.60;;;2.70;;
72132;SDS011;60008;50.826;6.896;2023-08-24T02:17:46;6.82;;;2.60;;
72132;SDS011;60008;50.826;6.896;2023-08-24T02:20:38;9.02;;;2.50;;
72132;SDS011;60008;50.826;6.896;2023-08-24T02:23:30;6.82;;;2.60;;
72132;SDS011;60008;50.826;6.896;2023-08-24T02:26:15;4.78;;;2.65;;
72132;SDS011;60008;50.826;6.896;2023-08-24T02:29:06;4.50;;;2.50;;
72132;SDS011;60008;50.826;6.896;2023-08-24T02:31:52;4.85;;;2.50;;
72132;SDS011;60008;50.826;6.896;2023-08-24T02:34:43;4.88;;;2.30;;
72132;SDS011;60008;50.826;6.896;2023-08-24T02:37:28;6.20;;;2.45;;
72132;SDS011;60008;50.826;6.896;2023-08-24T02:40:20;5.35;;;2.45;;
72132;SDS011;60008;50.826;6.896;2023-08-24T02:43:11;4.33;;;2.40;;
72132;SDS011;60008;50.826;6.896;2023-08-24T02:46:03;8.18;;;2.67;;
72132;SDS011;60008;50.826;6.896;2023-08-24T02:48:57;4.93;;;2.30;;
72132;SDS011;60008;50.826;6.896;2023-08-24T02:51:42;4.50;;;2.40;;
72132;SDS011;60008;50.826;6.896;2023-08-24T02:54:34;6.93;;;2.38;;
72132;SDS011;60008;50.826;6.896;2023-08-24T02:57:19;8.37;;;2.77;;
72132;SDS011;60008;50.826;6.896;2023-08-24T03:00:10;7.00;;;2.67;;
72132;SDS011;60008;50.826;6.896;2023-08-24T03:02:58;5.18;;;2.50;;
72132;SDS011;60008;50.826;6.896;2023-08-24T03:05:56;4.90;;;2.65;;
72132;SDS011;60008;50.826;6.896;2023-08-24T03:08:43;5.80;;;2.40;;
72132;SDS011;60008;50.826;6.896;2023-08-24T03:11:35;6.80;;;2.40;;
72132;SDS011;60008;50.826;6.896;2023-08-24T03:14:33;6.75;;;2.60;;
72132;SDS011;60008;50.826;6.896;2023-08-24T03:17:25;5.75;;;2.55;;
72132;SDS011;60008;50.826;6.896;2023-08-24T03:20:10;6.25;;;2.80;;
72132;SDS011;60008;50.826;6.896;2023-08-24T03:23:02;7.35;;;2.60;;
72132;SDS011;60008;50.826;6.896;2023-08-24T03:25:55;8.50;;;2.67;;
72132;SDS011;60008;50.826;6.896;2023-08-24T03:28:48;5.63;;;2.70;;
72132;SDS011;60008;50.826;6.896;2023-08-24T03:31:33;7.15;;;2.80;;
72132;SDS011;60008;50.826;6.896;2023-08-24T03:34:25;5.07;;;2.70;;
72132;SDS011;60008;50.826;6.896;2023-08-24T03:37:12;6.88;;;2.80;;
72132;SDS011;60008;50.826;6.896;2023-08-24T03:40:04;10.13;;;2.97;;
72132;SDS011;60008;50.826;6.896;2023-08-24T03:42:58;5.95;;;2.75;;
72132;SDS011;60008;50.826;6.896;2023-08-24T03:45:50;7.20;;;3.08;;
72132;SDS011;60008;50.826;6.896;2023-08-24T03:48:35;5.95;;;2.83;;
72132;SDS011;60008;50.826;6.896;2023-08-24T03:51:27;7.20;;;2.95;;
72132;SDS011;60008;50.826;6.896;2023-08-24T03:54:19;6.17;;;3.10;;
72132;SDS011;60008;50.826;6.896;2023-08-24T03:57:11;4.10;;;2.38;;
72132;SDS011;60008;50.826;6.896;2023-08-24T03:59:56;6.00;;;2.70;;
72132;SDS011;60008;50.826;6.896;2023-08-24T04:02:48;6.50;;;2.70;;
72132;SDS011;60008;50.826;6.896;2023-08-24T04:05:33;9.90;;;2.90;;
72132;SDS011;60008;50.826;6.896;2023-08-24T04:08:25;8.50;;;2.90;;
72132;SDS011;60008;50.826;6.896;2023-08-24T04:11:17;5.15;;;2.90;;
72132;SDS011;60008;50.826;6.896;2023-08-24T04:14:15;11.52;;;3.50;;
72132;SDS011;60008;50.826;6.896;2023-08-24T04:17:07;9.32;;;3.00;;
72132;SDS011;60008;50.826;6.896;2023-08-24T04:19:59;6.45;;;2.97;;
72132;SDS011;60008;50.826;6.896;2023-08-24T04:22:51;9.83;;;2.87;;
72132;SDS011;60008;50.826;6.896;2023-08-24T04:25:38;5.55;;;3.00;;
72132;SDS011;60008;50.826;6.896;2023-08-24T04:28:31;6.78;;;2.90;;
72132;SDS011;60008;50.826;6.896;2023-08-24T04:31:16;8.90;;;3.08;;
72132;SDS011;60008;50.826;6.896;2023-08-24T04:34:07;7.95;;;3.00;;
72132;SDS011;60008;50.826;6.896;2023-08-24T04:36:52;5.80;;;2.53;;
72132;SDS011;60008;50.826;6.896;2023-08-24T04:39:43;7.32;;;3.08;;
72132;SDS011;60008;50.826;6.896;2023-08-24T04:42:28;5.35;;;2.88;;
72132;SDS011;60008;50.826;6.896;2023-08-24T04:45:20;4.75;;;2.80;;
72132;SDS011;60008;50.826;6.896;2023-08-24T04:48:05;6.90;;;2.80;;
72132;SDS011;60008;50.826;6.896;2023-08-24T04:50:57;8.30;;;3.00;;
72132;SDS011;60008;50.826;6.896;2023-08-24T04:53:49;8.18;;;3.13;;
72132;SDS011;60008;50.826;6.896;2023-08-24T04:56:41;7.05;;;2.92;;
72132;SDS011;60008;50.826;6.896;2023-08-24T04:59:26;6.53;;;3.50;;
72132;SDS011;60008;50.826;6.896;2023-08-24T05:02:18;6.65;;;3.58;;
72132;SDS011;60008;50.826;6.896;2023-08-24T05:05:03;11.93;;;3.33;;
72132;SDS011;60008;50.826;6.896;2023-08-24T05:07:55;8.27;;;3.60;;
72132;SDS011;60008;50.826;6.896;2023-08-24T05:10:47;5.20;;;3.28;;
72132;SDS011;60008;50.826;6.896;2023-08-24T05:13:39;9.35;;;3.00;;
72132;SDS011;60008;50.826;6.896;2023-08-24T05:16:31;6.05;;;3.20;;
72132;SDS011;60008;50.826;6.896;2023-08-24T05:19:23;7.53;;;2.90;;
72132;SDS011;60008;50.826;6.896;2023-08-24T05:22:14;6.85;;;3.30;;
72132;SDS011;60008;50.826;6.896;2023-08-24T05:24:59;6.65;;;3.30;;
72132;SDS011;60008;50.826;6.896;2023-08-24T05:27:51;5.53;;;3.00;;
72132;SDS011;60008;50.826;6.896;2023-08-24T05:30:36;8.45;;;3.17;;
72132;SDS011;60008;50.826;6.896;2023-08-24T05:33:28;14.77;;;5.10;;
72132;SDS011;60008;50.826;6.896;2023-08-24T05:36:15;6.80;;;3.60;;
72132;SDS011;60008;50.826;6.896;2023-08-24T05:39:07;5.80;;;3.28;;
72132;SDS011;60008;50.826;6.896;2023-08-24T05:41:59;5.90;;;3.47;;
72132;SDS011;60008;50.826;6.896;2023-08-24T05:44:51;7.78;;;3.58;;
72132;SDS011;60008;50.826;6.896;2023-08-24T05:47:36;7.67;;;3.43;;
72132;SDS011;60008;50.826;6.896;2023-08-24T05:50:28;8.65;;;3.80;;
72132;SDS011;60008;50.826;6.896;2023-08-24T05:53:13;8.65;;;3.67;;
72132;SDS011;60008;50.826;6.896;2023-08-24T05:56:05;8.50;;;3.38;;
72132;SDS011;60008;50.826;6.896;2023-08-24T05:58:50;11.40;;;3.70;;
72132;SDS011;60008;50.826;6.896;2023-08-24T06:01:42;7.77;;;3.93;;
72132;SDS011;60008;50.826;6.896;2023-08-24T06:04:34;6.00;;;3.17;;
72132;SDS011;60008;50.826;6.896;2023-08-24T06:07:19;6.30;;;3.20;;
72132;SDS011;60008;50.826;6.896;2023-08-24T06:10:17;8.63;;;3.88;;
72132;SDS011;60008;50.826;6.896;2023-08-24T06:13:17;10.70;;;3.45;;
72132;SDS011;60008;50.826;6.896;2023-08-24T06:16:09;7.77;;;3.67;;
72132;SDS011;60008;50.826;6.896;2023-08-24T06:18:54;10.35;;;3.95;;
72132;SDS011;60008;50.826;6.896;2023-08-24T06:21:46;10.60;;;4.20;;
72132;SDS011;60008;50.826;6.896;2023-08-24T06:24:38;9.95;;;4.00;;
72132;SDS011;60008;50.826;6.896;2023-08-24T06:27:23;7.38;;;4.25;;
72132;SDS011;60008;50.826;6.896;2023-08-24T06:30:14;12.90;;;4.53;;
72132;SDS011;60008;50.826;6.896;2023-08-24T06:32:59;7.20;;;4.38;;
72132;SDS011;60008;50.826;6.896;2023-08-24T06:35:50;10.45;;;4.20;;
72132;SDS011;60008;50.826;6.896;2023-08-24T06:38:35;9.05;;;4.40;;
72132;SDS011;60008;50.826;6.896;2023-08-24T06:41:27;10.10;;;4.97;;
72132;SDS011;60008;50.826;6.896;2023-08-24T06:44:12;10.57;;;4.03;;
72132;SDS011;60008;50.826;6.896;2023-08-24T06:47:04;15.75;;;6.30;;
72132;SDS011;60008;50.826;6.896;2023-08-24T06:49:50;8.88;;;4.32;;
72132;SDS011;60008;50.826;6.896;2023-08-24T06:52:42;8.45;;;4.03;;
72132;SDS011;60008;50.826;6.896;2023-08-24T06:55:34;7.03;;;3.97;;
72132;SDS011;60008;50.826;6.896;2023-08-24T06:58:19;8.33;;;3.77;;
72132;SDS011;60008;50.826;6.896;2023-08-24T07:01:11;7.30;;;3.65;;
72132;SDS011;60008;50.826;6.896;2023-08-24T07:03:56;9.10;;;3.70;;
72132;SDS011;60008;50.826;6.896;2023-08-24T07:06:48;12.40;;;3.65;;
72132;SDS011;60008;50.826;6.896;2023-08-24T07:09:40;9.85;;;3.80;;
72132;SDS011;60008;50.826;6.896;2023-08-24T07:12:32;7.03;;;3.60;;
72132;SDS011;60008;50.826;6.896;2023-08-24T07:15:24;9.60;;;3.70;;
72132;SDS011;60008;50.826;6.896;2023-08-24T07:18:09;6.10;;;3.33;;
72132;SDS011;60008;50.826;6.896;2023-08-24T07:21:01;7.88;;;3.90;;
72132;SDS011;60008;50.826;6.896;2023-08-24T07:23:46;7.25;;;3.50;;
72132;SDS011;60008;50.826;6.896;2023-08-24T07:26:37;8.97;;;3.50;;
72132;SDS011;60008;50.826;6.896;2023-08-24T07:29:22;9.48;;;3.47;;
72132;SDS011;60008;50.826;6.896;2023-08-24T07:32:14;7.60;;;3.40;;
72132;SDS011;60008;50.826;6.896;2023-08-24T07:34:59;5.72;;;3.53;;
72132;SDS011;60008;50.826;6.896;2023-08-24T07:37:51;7.38;;;3.30;;
72132;SDS011;60008;50.826;6.896;2023-08-24T07:40:43;6.47;;;3.00;;
72132;SDS011;60008;50.826;6.896;2023-08-24T07:43:34;5.78;;;3.35;;
72132;SDS011;60008;50.826;6.896;2023-08-24T07:46:19;6.10;;;3.33;;
72132;SDS011;60008;50.826;6.896;2023-08-24T07:49:10;4.88;;;2.95;;
72132;SDS011;60008;50.826;6.896;2023-08-24T07:52:01;9.70;;;3.20;;
72132;SDS011;60008;50.826;6.896;2023-08-24T07:54:52;4.90;;;2.60;;
72132;SDS011;60008;50.826;6.896;2023-08-24T07:57:37;5.20;;;2.67;;
72132;SDS011;60008;50.826;6.896;2023-08-24T08:00:29;4.80;;;2.65;;
72132;SDS011;60008;50.826;6.896;2023-08-24T08:03:21;5.13;;;2.70;;
72132;SDS011;60008;50.826;6.896;2023-08-24T08:06:06;6.80;;;2.38;;
72132;SDS011;60008;50.826;6.896;2023-08-24T08:08:58;4.07;;;2.10;;
72132;SDS011;60008;50.826;6.896;2023-08-24T08:11:43;4.72;;;2.50;;
72132;SDS011;60008;50.826;6.896;2023-08-24T08:14:35;6.70;;;2.50;;
72132;SDS011;60008;50.826;6.896;2023-08-24T08:17:27;4.97;;;2.95;;
72132;SDS011;60008;50.826;6.896;2023-08-24T08:20:13;5.00;;;2.70;;
72132;SDS011;60008;50.826;6.896;2023-08-24T08:23:05;6.83;;;2.43;;
72132;SDS011;60008;50.826;6.896;2023-08-24T08:25:50;5.95;;;2.38;;
72132;SDS011;60008;50.826;6.896;2023-08-24T08:28:42;7.45;;;3.03;;
72132;SDS011;60008;50.826;6.896;2023-08-24T08:31:27;4.82;;;2.58;;
72132;SDS011;60008;50.826;6.896;2023-08-24T08:34:19;6.57;;;2.80;;
72132;SDS011;60008;50.826;6.896;2023-08-24T08:37:11;6.70;;;2.63;;
72132;SDS011;60008;50.826;6.896;2023-08-24T08:40:03;5.30;;;2.90;;
72132;SDS011;60008;50.826;6.896;2023-08-24T08:42:57;8.98;;;2.78;;
72132;SDS011;60008;50.826;6.896;2023-08-24T08:45:43;5.88;;;3.15;;
72132;SDS011;60008;50.826;6.896;2023-08-24T08:48:35;5.80;;;3.38;;
72132;SDS011;60008;50.826;6.896;2023-08-24T08:51:28;4.80;;;2.83;;
72132;SDS011;60008;50.826;6.896;2023-08-24T08:54:13;6.13;;;3.10;;
72132;SDS011;60008;50.826;6.896;2023-08-24T08:57:05;5.80;;;2.67;;
72132;SDS011;60008;50.826;6.896;2023-08-24T08:59:51;4.78;;;3.10;;
72132;SDS011;60008;50.826;6.896;2023-08-24T09:02:44;5.82;;;3.40;;
72132;SDS011;60008;50.826;6.896;2023-08-24T09:05:31;9.13;;;3.20;;
72132;SDS011;60008;50.826;6.896;2023-08-24T09:08:24;6.72;;;3.58;;
72132;SDS011;60008;50.826;6.896;2023-08-24T09:11:10;5.00;;;3.33;;
72132;SDS011;60008;50.826;6.896;2023-08-24T09:14:02;5.80;;;3.65;;
72132;SDS011;60008;50.826;6.896;2023-08-24T09:16:53;5.47;;;3.25;;
72132;SDS011;60008;50.826;6.896;2023-08-24T09:19:45;5.50;;;3.13;;
72132;SDS011;60008;50.826;6.896;2023-08-24T09:22:33;7.63;;;3.78;;
72132;SDS011;60008;50.826;6.896;2023-08-24T09:25:26;5.85;;;3.58;;
72132;SDS011;60008;50.826;6.896;2023-08-24T09:28:12;4.85;;;3.17;;
72132;SDS011;60008;50.826;6.896;2023-08-24T09:31:03;6.38;;;3.40;;
72132;SDS011;60008;50.826;6.896;2023-08-24T09:33:48;5.17;;;3.50;;
72132;SDS011;60008;50.826;6.896;2023-08-24T09:36:40;5.50;;;2.83;;
72132;SDS011;60008;50.826;6.896;2023-08-24T09:39:25;4.43;;;2.83;;
72132;SDS011;60008;50.826;6.896;2023-08-24T09:42:18;5.47;;;3.17;;
72132;SDS011;60008;50.826;6.896;2023-08-24T09:45:13;3.80;;;2.75;;
72132;SDS011;60008;50.826;6.896;2023-08-24T09:48:05;5.07;;;3.17;;
72132;SDS011;60008;50.826;6.896;2023-08-24T09:50:51;5.68;;;3.70;;
72132;SDS011;60008;50.826;6.896;2023-08-24T09:53:43;7.32;;;3.20;;
72132;SDS011;60008;50.826;6.896;2023-08-24T09:56:29;8.45;;;2.80;;
72132;SDS011;60008;50.826;6.896;2023-08-24T09:59:20;5.22;;;2.80;;
72132;SDS011;60008;50.826;6.896;2023-08-24T10:02:14;5.10;;;2.60;;
72132;SDS011;60008;50.826;6.896;2023-08-24T10:05:09;4.88;;;2.70;;
72132;SDS011;60008;50.826;6.896;2023-08-24T10:08:13;5.95;;;2.70;;
72132;SDS011;60008;50.826;6.896;2023-08-24T10:11:15;5.75;;;2.88;;
72132;SDS011;60008;50.826;6.896;2023-08-24T10:14:14;4.75;;;2.58;;
72132;SDS011;60008;50.826;6.896;2023-08-24T10:17:03;3.90;;;2.20;;
72132;SDS011;60008;50.826;6.896;2023-08-24T10:19:58;4.47;;;2.20;;
72132;SDS011;60008;50.826;6.896;2023-08-24T10:22:46;7.78;;;2.53;;
72132;SDS011;60008;50.826;6.896;2023-08-24T10:25:38;5.20;;;2.42;;
72132;SDS011;60008;50.826;6.896;2023-08-24T10:28:24;5.47;;;2.60;;
72132;SDS011;60008;50.826;6.896;2023-08-24T10:31:17;4.43;;;2.50;;
72132;SDS011;60008;50.826;6.896;2023-08-24T10:34:04;6.20;;;2.13;;
72132;SDS011;60008;50.826;6.896;2023-08-24T10:36:57;6.22;;;2.47;;
72132;SDS011;60008;50.826;6.896;2023-08-24T10:39:45;4.30;;;2.20;;
72132;SDS011;60008;50.826;6.896;2023-08-24T10:42:45;6.32;;;2.70;;
72132;SDS011;60008;50.826;6.896;2023-08-24T10:48:57;9.90;;;2.30;;
72132;SDS011;60008;50.826;6.896;2023-08-24T10:51:43;8.80;;;2.72;;
72132;SDS011;60008;50.826;6.896;2023-08-24T10:54:36;4.85;;;2.50;;
72132;SDS011;60008;50.826;6.896;2023-08-24T10:57:37;3.70;;;2.38;;
72132;SDS011;60008;50.826;6.896;2023-08-24T11:00:31;3.53;;;2.10;;
72132;SDS011;60008;50.826;6.896;2023-08-24T11:03:30;4.47;;;2.40;;
72132;SDS011;60008;50.826;6.896;2023-08-24T11:06:22;6.28;;;2.55;;
72132;SDS011;60008;50.826;6.896;2023-08-24T11:09:09;5.35;;;2.30;;
72132;SDS011;60008;50.826;6.896;2023-08-24T11:12:05;4.30;;;2.40;;
72132;SDS011;60008;50.826;6.896;2023-08-24T11:15:03;5.97;;;2.17;;
72132;SDS011;60008;50.826;6.896;2023-08-24T11:18:10;4.30;;;2.05;;
72132;SDS011;60008;50.826;6.896;2023-08-24T11:21:01;5.57;;;2.50;;
72132;SDS011;60008;50.826;6.896;2023-08-24T11:23:54;4.03;;;2.40;;
72132;SDS011;60008;50.826;6.896;2023-08-24T11:29:35;5.47;;;2.30;;
72132;SDS011;60008;50.826;6.896;2023-08-24T11:32:20;5.35;;;3.15;;
72132;SDS011;60008;50.826;6.896;2023-08-24T11:35:12;6.25;;;2.58;;
72132;SDS011;60008;50.826;6.896;2023-08-24T11:37:57;7.53;;;2.83;;
72132;SDS011;60008;50.826;6.896;2023-08-24T11:40:49;6.22;;;2.65;;
72132;SDS011;60008;50.826;6.896;2023-08-24T11:43:34;5.57;;;2.40;;
72132;SDS011;60008;50.826;6.896;2023-08-24T11:46:28;6.43;;;2.50;;
72132;SDS011;60008;50.826;6.896;2023-08-24T11:49:14;5.18;;;2.40;;
72132;SDS011;60008;50.826;6.896;2023-08-24T11:52:05;6.82;;;3.95;;
72132;SDS011;60008;50.826;6.896;2023-08-24T11:55:00;5.93;;;2.67;;
72132;SDS011;60008;50.826;6.896;2023-08-24T11:57:46;7.93;;;2.70;;
72132;SDS011;60008;50.826;6.896;2023-08-24T12:00:37;7.10;;;2.75;;
72132;SDS011;60008;50.826;6.896;2023-08-24T12:03:23;9.52;;;2.47;;
72132;SDS011;60008;50.826;6.896;2023-08-24T12:06:16;4.72;;;2.50;;
72132;SDS011;60008;50.826;6.896;2023-08-24T12:09:04;4.05;;;2.85;;
72132;SDS011;60008;50.826;6.896;2023-08-24T12:11:56;5.80;;;2.73;;
72132;SDS011;60008;50.826;6.896;2023-08-24T12:14:54;7.05;;;2.40;;
72132;SDS011;60008;50.826;6.896;2023-08-24T12:17:47;7.93;;;2.35;;
72132;SDS011;60008;50.826;6.896;2023-08-24T12:20:42;9.23;;;2.60;;
72132;SDS011;60008;50.826;6.896;2023-08-24T12:23:34;7.13;;;2.80;;
72132;SDS011;60008;50.826;6.896;2023-08-24T12:26:19;6.07;;;2.40;;
72132;SDS011;60008;50.826;6.896;2023-08-24T12:29:11;5.60;;;2.40;;
72132;SDS011;60008;50.826;6.896;2023-08-24T12:31:57;9.15;;;2.72;;
72132;SDS011;60008;50.826;6.896;2023-08-24T12:34:49;6.57;;;2.65;;
72132;SDS011;60008;50.826;6.896;2023-08-24T12:37:37;6.28;;;3.40;;
72132;SDS011;60008;50.826;6.896;2023-08-24T12:40:29;9.80;;;2.40;;
72132;SDS011;60008;50.826;6.896;2023-08-24T12:43:14;7.65;;;3.95;;
72132;SDS011;60008;50.826;6.896;2023-08-24T12:46:06;11.05;;;5.28;;
72132;SDS011;60008;50.826;6.896;2023-08-24T12:48:51;10.05;;;3.78;;
72132;SDS011;60008;50.826;6.896;2023-08-24T12:51:43;6.00;;;2.83;;
72132;SDS011;60008;50.826;6.896;2023-08-24T12:54:28;6.50;;;2.70;;
72132;SDS011;60008;50.826;6.896;2023-08-24T12:57:19;9.35;;;2.78;;
72132;SDS011;60008;50.826;6.896;2023-08-24T13:00:04;6.07;;;2.35;;
72132;SDS011;60008;50.826;6.896;2023-08-24T13:02:57;6.40;;;2.33;;
72132;SDS011;60008;50.826;6.896;2023-08-24T13:05:42;6.97;;;2.58;;
72132;SDS011;60008;50.826;6.896;2023-08-24T13:08:34;7.13;;;2.47;;
72132;SDS011;60008;50.826;6.896;2023-08-24T13:11:26;4.07;;;2.10;;
72132;SDS011;60008;50.826;6.896;2023-08-24T13:14:31;9.75;;;2.63;;
72132;SDS011;60008;50.826;6.896;2023-08-24T13:17:16;10.25;;;2.70;;
72132;SDS011;60008;50.826;6.896;2023-08-24T13:20:08;7.28;;;2.50;;
72132;SDS011;60008;50.826;6.896;2023-08-24T13:22:53;9.70;;;2.47;;
72132;SDS011;60008;50.826;6.896;2023-08-24T13:25:45;6.10;;;2.47;;
72132;SDS011;60008;50.826;6.896;2023-08-24T13:28:30;9.05;;;2.90;;
72132;SDS011;60008;50.826;6.896;2023-08-24T13:31:22;4.80;;;1.90;;
72132;SDS011;60008;50.826;6.896;2023-08-24T13:34:07;8.10;;;2.20;;
72132;SDS011;60008;50.826;6.896;2023-08-24T13:37:00;8.10;;;2.33;;
72132;SDS011;60008;50.826;6.896;2023-08-24T13:39:45;5.85;;;2.13;;
72132;SDS011;60008;50.826;6.896;2023-08-24T13:42:36;3.90;;;2.17;;
72132;SDS011;60008;50.826;6.896;2023-08-24T13:45:21;7.22;;;2.33;;
72132;SDS011;60008;50.826;6.896;2023-08-24T13:48:13;5.22;;;2.17;;
72132;SDS011;60008;50.826;6.896;2023-08-24T13:50:58;6.73;;;2.33;;
72132;SDS011;60008;50.826;6.896;2023-08-24T13:53:50;5.28;;;2.20;;
72132;SDS011;60008;50.826;6.896;2023-08-24T13:56:43;5.18;;;2.17;;
72132;SDS011;60008;50.826;6.896;2023-08-24T13:59:35;7.43;;;2.20;;
72132;SDS011;60008;50.826;6.896;2023-08-24T14:02:20;4.80;;;2.20;;
72132;SDS011;60008;50.826;6.896;2023-08-24T14:05:11;4.53;;;2.37;;
72132;SDS011;60008;50.826;6.896;2023-08-24T14:07:57;6.82;;;2.20;;
72132;SDS011;60008;50.826;6.896;2023-08-24T14:10:49;5.50;;;2.03;;
72132;SDS011;60008;50.826;6.896;2023-08-24T14:13:34;5.35;;;1.90;;
72132;SDS011;60008;50.826;6.896;2023-08-24T14:16:33;4.75;;;2.00;;
72132;SDS011;60008;50.826;6.896;2023-08-24T14:19:18;4.27;;;2.10;;
72132;SDS011;60008;50.826;6.896;2023-08-24T14:22:10;7.00;;;1.95;;
72132;SDS011;60008;50.826;6.896;2023-08-24T14:24:55;6.50;;;2.33;;
72132;SDS011;60008;50.826;6.896;2023-08-24T14:27:47;7.20;;;2.40;;
72132;SDS011;60008;50.826;6.896;2023-08-24T14:30:50;4.32;;;1.92;;
72132;SDS011;60008;50.826;6.896;2023-08-24T14:33:42;6.97;;;2.40;;
72132;SDS011;60008;50.826;6.896;2023-08-24T14:36:27;5.72;;;2.03;;
72132;SDS011;60008;50.826;6.896;2023-08-24T14:39:19;7.30;;;2.60;;
72132;SDS011;60008;50.826;6.896;2023-08-24T14:42:04;7.90;;;2.13;;
72132;SDS011;60008;50.826;6.896;2023-08-24T14:44:56;5.47;;;2.13;;
72132;SDS011;60008;50.826;6.896;2023-08-24T14:47:47;3.67;;;1.70;;
72132;SDS011;60008;50.826;6.896;2023-08-24T14:50:32;5.95;;;2.22;;
72132;SDS011;60008;50.826;6.896;2023-08-24T14:53:24;3.90;;;1.55;;
72132;SDS011;60008;50.826;6.896;2023-08-24T14:56:10;7.93;;;1.80;;
72132;SDS011;60008;50.826;6.896;2023-08-24T14:59:02;6.63;;;2.22;;
72132;SDS011;60008;50.826;6.896;2023-08-24T15:01:54;5.93;;;1.50;;
72132;SDS011;60008;50.826;6.896;2023-08-24T15:04:39;7.03;;;1.75;;
72132;SDS011;60008;50.826;6.896;2023-08-24T15:07:30;4.32;;;1.80;;
72132;SDS011;60008;50.826;6.896;2023-08-24T15:10:16;5.32;;;1.83;;
72132;SDS011;60008;50.826;6.896;2023-08-24T15:13:16;5.32;;;2.00;;
72132;SDS011;60008;50.826;6.896;2023-08-24T15:16:01;4.07;;;1.60;;
72132;SDS011;60008;50.826;6.896;2023-08-24T15:18:53;3.80;;;1.50;;
72132;SDS011;60008;50.826;6.896;2023-08-24T15:21:38;4.63;;;1.33;;
72132;SDS011;60008;50.826;6.896;2023-08-24T15:24:30;3.55;;;1.17;;
72132;SDS011;60008;50.826;6.896;2023-08-24T15:27:22;4.07;;;1.50;;
72132;SDS011;60008;50.826;6.896;2023-08-24T15:30:07;8.43;;;2.10;;
72132;SDS011;60008;50.826;6.896;2023-08-24T15:32:59;9.15;;;1.77;;
72132;SDS011;60008;50.826;6.896;2023-08-24T15:35:44;6.90;;;2.10;;
72132;SDS011;60008;50.826;6.896;2023-08-24T15:38:36;6.40;;;1.50;;
72132;SDS011;60008;50.826;6.896;2023-08-24T15:41:27;9.02;;;1.20;;
72132;SDS011;60008;50.826;6.896;2023-08-24T15:44:12;8.63;;;1.17;;
72132;SDS011;60008;50.826;6.896;2023-08-24T15:47:04;5.80;;;1.30;;
72132;SDS011;60008;50.826;6.896;2023-08-24T15:49:49;4.38;;;1.13;;
72132;SDS011;60008;50.826;6.896;2023-08-24T15:52:41;3.40;;;1.10;;
72132;SDS011;60008;50.826;6.896;2023-08-24T15:55:32;4.95;;;1.42;;
72132;SDS011;60008;50.826;6.896;2023-08-24T15:58:23;6.97;;;1.57;;
72132;SDS011;60008;50.826;6.896;2023-08-24T16:01:15;4.75;;;1.20;;
72132;SDS011;60008;50.826;6.896;2023-08-24T16:04:07;5.72;;;1.48;;
72132;SDS011;60008;50.826;6.896;2023-08-24T16:06:58;4.85;;;1.10;;
72132;SDS011;60008;50.826;6.896;2023-08-24T16:09:51;5.55;;;0.95;;
72132;SDS011;60008;50.826;6.896;2023-08-24T16:12:36;3.13;;;1.00;;
72132;SDS011;60008;50.826;6.896;2023-08-24T16:15:28;5.15;;;1.20;;
72132;SDS011;60008;50.826;6.896;2023-08-24T16:18:22;3.08;;;0.80;;
72132;SDS011;60008;50.826;6.896;2023-08-24T16:21:15;3.17;;;1.10;;
72132;SDS011;60008;50.826;6.896;2023-08-24T16:24:07;7.30;;;1.20;;
72132;SDS011;60008;50.826;6.896;2023-08-24T16:26:54;2.87;;;0.83;;
72132;SDS011;60008;50.826;6.896;2023-08-24T16:29:46;4.60;;;1.10;;
72132;SDS011;60008;50.826;6.896;2023-08-24T16:32:32;5.22;;;1.23;;
72132;SDS011;60008;50.826;6.896;2023-08-24T16:35:24;3.10;;;1.17;;
72132;SDS011;60008;50.826;6.896;2023-08-24T16:38:09;5.22;;;1.60;;
72132;SDS011;60008;50.826;6.896;2023-08-24T16:41:01;6.17;;;1.33;;
72132;SDS011;60008;50.826;6.896;2023-08-24T16:43:48;3.78;;;1.00;;
72132;SDS011;60008;50.826;6.896;2023-08-24T16:46:39;4.55;;;1.40;;
72132;SDS011;60008;50.826;6.896;2023-08-24T16:49:25;5.07;;;1.58;;
72132;SDS011;60008;50.826;6.896;2023-08-24T16:52:18;5.97;;;1.35;;
72132;SDS011;60008;50.826;6.896;2023-08-24T16:55:10;5.37;;;1.07;;
72132;SDS011;60008;50.826;6.896;2023-08-24T16:57:55;6.43;;;1.23;;
72132;SDS011;60008;50.826;6.896;2023-08-24T17:00:47;2.67;;;0.90;;
72132;SDS011;60008;50.826;6.896;2023-08-24T17:03:32;3.78;;;1.10;;
72132;SDS011;60008;50.826;6.896;2023-08-24T17:06:23;3.78;;;1.25;;
72132;SDS011;60008;50.826;6.896;2023-08-24T17:09:19;2.77;;;1.37;;
72132;SDS011;60008;50.826;6.896;2023-08-24T17:12:11;2.47;;;1.35;;
72132;SDS011;60008;50.826;6.896;2023-08-24T17:15:09;3.05;;;1.42;;
72132;SDS011;60008;50.826;6.896;2023-08-24T17:18:02;3.97;;;1.50;;